Terminal Aerodrome Forecast
Issued by NWS

Home | Current Version | Previous Version | Text Only | Print | Product List | Glossary On
Versions: 1 2 3 4 5 6 7 8 9 10 11 12 13 14 15 16 17 18 19
428
FTUS43 KDVN 162102 AAA
TAFCID
TAF AMD
KCID 162102Z 1621/1718 11010KT 2SM -RA BR OVC004
      TEMPO 1621/1624 1SM -DZ BR OVC002
     FM170000 10004KT 1/2SM -DZ FG OVC002
     FM170300 04006KT 1/4SM -DZ FG VV003
     FM171000 32008KT 4SM BR OVC004=

USA.gov is the U.S. government's official web portal to all federal, state and local government web resources and services.